createdAt,value
2023-03-06T00:00:24.877Z,99726.86
2023-03-06T00:00:52.209Z,99726.19
2023-03-06T00:01:15.938Z,99730.34
2023-03-06T00:01:41.506Z,99727.46
2023-03-06T00:02:04.800Z,99727.52
2023-03-06T00:02:28.479Z,99727.73
2023-03-06T00:02:52.345Z,99727.27
2023-03-06T00:03:15.338Z,99726.43
2023-03-06T00:03:39.862Z,99723.56
2023-03-06T00:04:04.392Z,99725.14
2023-03-06T00:04:27.987Z,99725.73
2023-03-06T00:04:51.747Z,99726.14
2023-03-06T00:05:15.457Z,99728.98
2023-03-06T00:05:38.997Z,99727.89
2023-03-06T00:06:02.174Z,99726.98
2023-03-06T00:06:25.602Z,99725.53
2023-03-06T00:06:49.226Z,99726.55
2023-03-06T00:07:12.444Z,99727.89
2023-03-06T00:07:35.863Z,99725.44
2023-03-06T00:07:59.902Z,99726.62
2023-03-06T00:08:31.507Z,99727.80
2023-03-06T00:08:55.226Z,99728.64
2023-03-06T00:09:19.785Z,99728.09
2023-03-06T00:09:43.299Z,99725.80
2023-03-06T00:10:16.745Z,99727.34
2023-03-06T00:10:40.485Z,99727.84
2023-03-06T00:11:04.300Z,99725.75
2023-03-06T00:11:27.720Z,99725.86
2023-03-06T00:11:50.841Z,99727.54
2023-03-06T00:12:14.461Z,99725.29
2023-03-06T00:12:39.518Z,99726.95
2023-03-06T00:13:06.015Z,99724.13
2023-03-06T00:13:30.858Z,99727.08
2023-03-06T00:13:53.972Z,99725.83
2023-03-06T00:14:17.292Z,99721.98
2023-03-06T00:14:40.383Z,99722.98
2023-03-06T00:15:05.766Z,99721.24
2023-03-06T00:15:29.293Z,99721.05
2023-03-06T00:15:52.708Z,99722.74
2023-03-06T00:16:18.359Z,99719.98
2023-03-06T00:16:41.608Z,99720.79
2023-03-06T00:17:04.765Z,99720.95
2023-03-06T00:17:28.872Z,99721.80
2023-03-06T00:17:52.275Z,99723.67
2023-03-06T00:18:16.614Z,99718.11
2023-03-06T00:18:45.169Z,99723.61
2023-03-06T00:19:11.638Z,99723.60
2023-03-06T00:19:34.770Z,99722.20
2023-03-06T00:19:57.762Z,99719.90
2023-03-06T00:20:21.333Z,99719.70
2023-03-06T00:20:45.891Z,99717.78
2023-03-06T00:21:09.372Z,99718.49
2023-03-06T00:21:32.470Z,99721.20
2023-03-06T00:21:56.220Z,99718.11
2023-03-06T00:22:21.666Z,99720.33
2023-03-06T00:22:50.303Z,99720.65
2023-03-06T00:23:13.822Z,99722.02
2023-03-06T00:23:41.549Z,99722.20
2023-03-06T00:24:05.168Z,99721.15
2023-03-06T00:24:28.188Z,99723.90
2023-03-06T00:24:53.233Z,99721.16
2023-03-06T00:25:17.270Z,99722.16
2023-03-06T00:25:44.781Z,99725.11
2023-03-06T00:26:08.516Z,99725.13
2023-03-06T00:26:34.077Z,99722.72
2023-03-06T00:26:57.089Z,99720.13
2023-03-06T00:27:20.611Z,99722.70
2023-03-06T00:27:43.732Z,99721.67
2023-03-06T00:28:09.092Z,99721.02
2023-03-06T00:28:33.144Z,99724.46
2023-03-06T00:28:57.566Z,99723.96
2023-03-06T00:29:23.220Z,99721.89
2023-03-06T00:29:51.036Z,99723.13
2023-03-06T00:30:15.208Z,99718.98
2023-03-06T00:30:39.334Z,99720.56
2023-03-06T00:31:05.848Z,99720.25
2023-03-06T00:31:34.077Z,99720.92
2023-03-06T00:32:02.406Z,99722.02
2023-03-06T00:32:26.532Z,99720.65
2023-03-06T00:32:50.140Z,99721.35
2023-03-06T00:33:13.073Z,99719.77
2023-03-06T00:33:36.264Z,99720.30
2023-03-06T00:33:59.262Z,99724.90
2023-03-06T00:34:22.409Z,99720.25
2023-03-06T00:34:48.482Z,99719.64
2023-03-06T00:35:11.995Z,99721.61
2023-03-06T00:35:35.214Z,99723.12
2023-03-06T00:35:58.697Z,99721.83
2023-03-06T00:36:21.847Z,99719.84
2023-03-06T00:36:44.939Z,99719.23
2023-03-06T00:37:09.717Z,99718.63
2023-03-06T00:37:35.484Z,99718.52
2023-03-06T00:37:59.958Z,99719.13
2023-03-06T00:38:22.946Z,99716.10
2023-03-06T00:38:46.325Z,99715.70
2023-03-06T00:39:09.858Z,99718.36
2023-03-06T00:39:33.610Z,99717.48
2023-03-06T00:39:56.560Z,99716.23
2023-03-06T00:40:20.049Z,99717.02
2023-03-06T00:40:43.059Z,99718.77
2023-03-06T00:41:06.892Z,99717.61
2023-03-06T00:41:31.022Z,99716.56
2023-03-06T00:41:54.185Z,99720.23
2023-03-06T00:42:17.414Z,99720.61
2023-03-06T00:42:40.571Z,99717.18
2023-03-06T00:43:03.888Z,99716.70
2023-03-06T00:43:28.640Z,99718.30
2023-03-06T00:43:54.002Z,99718.86
2023-03-06T00:44:17.153Z,99715.95
2023-03-06T00:44:41.974Z,99716.14
2023-03-06T00:45:05.491Z,99714.64
2023-03-06T00:45:28.593Z,99715.86
2023-03-06T00:45:51.781Z,99714.69
2023-03-06T00:46:15.753Z,99713.54
2023-03-06T00:46:38.983Z,99718.25
2023-03-06T00:47:02.084Z,99716.24
2023-03-06T00:47:27.224Z,99717.31
2023-03-06T00:47:50.365Z,99716.13
2023-03-06T00:48:13.572Z,99715.68
2023-03-06T00:48:36.562Z,99715.91
2023-03-06T00:49:03.057Z,99716.67
2023-03-06T00:49:27.254Z,99715.15
2023-03-06T00:49:50.278Z,99714.99
2023-03-06T00:50:13.955Z,99714.20
2023-03-06T00:50:38.108Z,99712.84
2023-03-06T00:51:01.611Z,99716.43
2023-03-06T00:51:25.236Z,99716.14
2023-03-06T00:51:48.348Z,99713.77
2023-03-06T00:52:12.281Z,99715.41
2023-03-06T00:52:35.397Z,99712.36
2023-03-06T00:52:58.722Z,99716.92
2023-03-06T00:53:21.626Z,99717.68
2023-03-06T00:53:45.457Z,99717.06
2023-03-06T00:54:08.582Z,99716.44
2023-03-06T00:54:32.408Z,99716.67
2023-03-06T00:54:55.920Z,99714.83
2023-03-06T00:55:18.937Z,99714.41
2023-03-06T00:55:44.705Z,99716.36
2023-03-06T00:56:09.290Z,99715.75
2023-03-06T00:56:33.184Z,99715.53
2023-03-06T00:56:56.711Z,99716.78
2023-03-06T00:57:20.243Z,99717.73
2023-03-06T00:57:43.352Z,99713.16
2023-03-06T00:58:06.517Z,99713.36
2023-03-06T00:58:29.878Z,99714.85
2023-03-06T00:58:53.096Z,99715.27
2023-03-06T00:59:16.240Z,99716.73
2023-03-06T00:59:39.327Z,99716.45
2023-03-06T01:00:07.993Z,99714.48
2023-03-06T01:00:31.484Z,99715.77
2023-03-06T01:00:54.853Z,99719.65
2023-03-06T01:01:19.421Z,99720.25
2023-03-06T01:01:43.077Z,99718.27
2023-03-06T01:02:07.252Z,99719.02
2023-03-06T01:02:31.627Z,99715.28
2023-03-06T01:02:56.324Z,99716.39
2023-03-06T01:03:20.865Z,99716.31
2023-03-06T01:03:47.959Z,99719.86
2023-03-06T01:04:12.461Z,99722.34
2023-03-06T01:04:36.842Z,99721.02
2023-03-06T01:05:02.513Z,99720.45
2023-03-06T01:05:27.976Z,99719.34
2023-03-06T01:05:57.538Z,99719.46
2023-03-06T01:06:21.368Z,99724.02
2023-03-06T01:06:45.095Z,99717.70
2023-03-06T01:07:08.512Z,99720.73
2023-03-06T01:07:37.263Z,99720.45
2023-03-06T01:08:00.567Z,99718.94
2023-03-06T01:08:24.580Z,99721.56
2023-03-06T01:08:47.935Z,99721.71
2023-03-06T01:09:11.958Z,99722.06
2023-03-06T01:09:35.493Z,99719.63
2023-03-06T01:09:58.790Z,99722.71
2023-03-06T01:10:22.214Z,99720.31
2023-03-06T01:10:45.371Z,99723.38
2023-03-06T01:11:08.453Z,99717.98
2023-03-06T01:11:31.662Z,99722.80
2023-03-06T01:11:55.185Z,99720.56
2023-03-06T01:12:18.914Z,99721.57
2023-03-06T01:12:42.028Z,99718.97
2023-03-06T01:13:07.301Z,99717.92
2023-03-06T01:13:32.446Z,99716.50
2023-03-06T01:13:58.662Z,99719.98
2023-03-06T01:14:21.949Z,99719.51
2023-03-06T01:14:44.829Z,99719.35
2023-03-06T01:15:09.210Z,99719.41
2023-03-06T01:15:33.027Z,99719.30
2023-03-06T01:15:56.042Z,99719.48
2023-03-06T01:16:19.723Z,99718.73
2023-03-06T01:16:45.542Z,99718.11
2023-03-06T01:17:09.064Z,99718.52
2023-03-06T01:17:32.786Z,99715.81
2023-03-06T01:17:56.012Z,99717.12
2023-03-06T01:18:19.146Z,99719.41
2023-03-06T01:18:42.340Z,99717.42
2023-03-06T01:19:05.564Z,99717.83
2023-03-06T01:19:28.883Z,99716.34
2023-03-06T01:19:51.989Z,99716.40
2023-03-06T01:20:15.886Z,99714.61
2023-03-06T01:20:40.159Z,99716.39
2023-03-06T01:21:04.296Z,99719.41
2023-03-06T01:21:28.840Z,99715.00
2023-03-06T01:21:51.858Z,99721.96
2023-03-06T01:22:14.972Z,99719.45
2023-03-06T01:22:38.694Z,99719.19
2023-03-06T01:23:01.912Z,99720.63
2023-03-06T01:23:25.024Z,99722.09
2023-03-06T01:23:48.343Z,99719.02
2023-03-06T01:24:13.197Z,99724.79
2023-03-06T01:24:36.219Z,99721.61
2023-03-06T01:24:59.219Z,99719.60
2023-03-06T01:25:24.175Z,99717.92
2023-03-06T01:25:47.199Z,99720.09
2023-03-06T01:26:10.407Z,99723.42
2023-03-06T01:26:35.869Z,99719.52
2023-03-06T01:26:59.105Z,99719.40
2023-03-06T01:27:22.611Z,99723.10
2023-03-06T01:27:45.968Z,99720.74
2023-03-06T01:28:09.055Z,99721.66
2023-03-06T01:28:34.100Z,99717.92
2023-03-06T01:28:58.441Z,99719.54
2023-03-06T01:29:21.655Z,99722.02
2023-03-06T01:29:44.681Z,99720.16
2023-03-06T01:30:08.600Z,99720.58
2023-03-06T01:30:31.922Z,99719.39
2023-03-06T01:30:56.257Z,99719.50
2023-03-06T01:31:19.606Z,99720.73
2023-03-06T01:31:43.557Z,99721.48
2023-03-06T01:32:07.677Z,99720.16
2023-03-06T01:32:33.065Z,99717.29
2023-03-06T01:32:56.568Z,99717.33
2023-03-06T01:33:19.751Z,99720.48
2023-03-06T01:33:42.987Z,99716.20
2023-03-06T01:34:06.490Z,99720.05
2023-03-06T01:34:29.606Z,99719.08
2023-03-06T01:34:52.926Z,99718.20
2023-03-06T01:35:15.974Z,99713.15
2023-03-06T01:35:39.489Z,99718.64
2023-03-06T01:36:08.232Z,99715.14
2023-03-06T01:36:31.515Z,99718.38
2023-03-06T01:36:55.147Z,99716.96
2023-03-06T01:37:20.909Z,99716.20
2023-03-06T01:37:44.030Z,99717.73
2023-03-06T01:38:07.578Z,99713.70
2023-03-06T01:38:31.714Z,99718.66
2023-03-06T01:38:55.007Z,99714.82
2023-03-06T01:39:18.634Z,99714.74
2023-03-06T01:39:43.088Z,99715.93
2023-03-06T01:40:07.340Z,99716.73
2023-03-06T01:40:33.403Z,99716.05
2023-03-06T01:40:56.409Z,99712.61
2023-03-06T01:41:21.279Z,99713.16
2023-03-06T01:41:47.646Z,99714.73
2023-03-06T01:42:11.990Z,99709.26
2023-03-06T01:42:36.534Z,99711.21
2023-03-06T01:43:03.845Z,99710.39
2023-03-06T01:43:27.172Z,99713.73
2023-03-06T01:43:50.584Z,99709.83
2023-03-06T01:44:13.913Z,99713.15
2023-03-06T01:44:37.834Z,99710.63
2023-03-06T01:45:08.624Z,99711.21
2023-03-06T01:45:31.739Z,99711.61
2023-03-06T01:46:26.454Z,99709.48
2023-03-06T01:46:49.769Z,99710.55
2023-03-06T01:47:12.905Z,99709.05
2023-03-06T01:47:39.884Z,99709.45
2023-03-06T01:48:03.405Z,99710.35
2023-03-06T01:48:26.624Z,99709.88
2023-03-06T01:48:50.464Z,99709.06
2023-03-06T01:49:18.887Z,99709.60
2023-03-06T01:49:41.902Z,99710.01
2023-03-06T01:50:05.122Z,99706.78
2023-03-06T01:50:28.230Z,99710.10
2023-03-06T01:50:51.162Z,99709.09
2023-03-06T01:51:14.981Z,99708.80
2023-03-06T01:51:58.232Z,99710.04
2023-03-06T01:52:22.369Z,99709.94
2023-03-06T01:52:49.602Z,99709.30
2023-03-06T01:53:12.583Z,99711.77
2023-03-06T01:53:35.903Z,99711.45
2023-03-06T01:54:00.343Z,99708.54
2023-03-06T01:54:39.425Z,99711.38
2023-03-06T01:55:09.075Z,99713.30
2023-03-06T01:55:33.439Z,99714.90
2023-03-06T01:55:56.351Z,99714.44
2023-03-06T01:56:19.848Z,99713.77
2023-03-06T01:56:43.849Z,99713.30
2023-03-06T01:57:11.911Z,99713.55
2023-03-06T01:57:38.812Z,99715.95
2023-03-06T01:58:04.066Z,99716.35
2023-03-06T01:58:27.385Z,99714.48
2023-03-06T01:58:51.526Z,99716.93
2023-03-06T01:59:14.533Z,99717.66
2023-03-06T01:59:37.757Z,99716.33
2023-03-06T02:00:09.973Z,99715.83
2023-03-06T02:00:40.135Z,99716.77
2023-03-06T02:01:05.161Z,99713.84
2023-03-06T02:01:29.074Z,99714.73
2023-03-06T02:01:52.138Z,99714.09
2023-03-06T02:02:15.273Z,99715.36
2023-03-06T02:02:38.705Z,99712.59
2023-03-06T02:03:05.163Z,99714.02
2023-03-06T02:03:28.392Z,99711.98
2023-03-06T02:03:55.402Z,99708.72
2023-03-06T02:04:19.318Z,99710.11
2023-03-06T02:04:42.969Z,99714.98
2023-03-06T02:05:06.360Z,99709.80
2023-03-06T02:05:29.368Z,99712.55
2023-03-06T02:06:12.315Z,99711.13
2023-03-06T02:06:40.863Z,99708.82
2023-03-06T02:07:06.495Z,99707.55
2023-03-06T02:07:30.835Z,99708.67
2023-03-06T02:07:57.468Z,99705.48
2023-03-06T02:08:20.883Z,99708.52
2023-03-06T02:08:44.844Z,99707.78
2023-03-06T02:09:09.362Z,99708.92
2023-03-06T02:09:33.820Z,99709.34
2023-03-06T02:09:56.831Z,99707.55
2023-03-06T02:10:21.088Z,99705.77
2023-03-06T02:10:56.137Z,99707.98
2023-03-06T02:11:22.999Z,99709.13
2023-03-06T02:11:46.479Z,99711.36
2023-03-06T02:12:10.692Z,99711.85
2023-03-06T02:12:34.020Z,99712.92
2023-03-06T02:12:57.043Z,99711.04
2023-03-06T02:13:20.964Z,99710.02
2023-03-06T02:13:48.265Z,99709.52
2023-03-06T02:14:12.402Z,99710.09
2023-03-06T02:14:36.008Z,99709.61
2023-03-06T02:14:59.148Z,99711.90
2023-03-06T02:15:28.392Z,99713.48
2023-03-06T02:15:51.403Z,99711.61
2023-03-06T02:16:15.849Z,99715.09
2023-03-06T02:16:39.948Z,99712.19
2023-03-06T02:17:04.237Z,99711.56
2023-03-06T02:17:34.002Z,99711.54
2023-03-06T02:17:57.098Z,99711.58
2023-03-06T02:18:20.147Z,99710.77
2023-03-06T02:18:43.304Z,99710.96
2023-03-06T02:19:07.567Z,99711.51
2023-03-06T02:19:49.705Z,99711.02
2023-03-06T02:20:18.139Z,99709.88
2023-03-06T02:20:59.068Z,99710.59
2023-03-06T02:21:35.374Z,99708.93
2023-03-06T02:21:59.094Z,99712.58
2023-03-06T02:22:22.608Z,99712.13
2023-03-06T02:22:45.637Z,99705.77
2023-03-06T02:23:14.991Z,99708.04
2023-03-06T02:23:56.799Z,99708.58
2023-03-06T02:24:38.527Z,99708.65
2023-03-06T02:25:04.756Z,99710.80
2023-03-06T02:25:36.618Z,99714.27
2023-03-06T02:25:59.942Z,99712.23
2023-03-06T02:26:23.157Z,99713.16
2023-03-06T02:26:46.987Z,99712.35
2023-03-06T02:27:14.606Z,99711.70
2023-03-06T02:27:38.271Z,99712.93
2023-03-06T02:28:01.341Z,99712.13
2023-03-06T02:28:24.758Z,99712.49
2023-03-06T02:28:47.873Z,99710.31
2023-03-06T02:29:11.715Z,99711.19
2023-03-06T02:29:34.745Z,99711.58
2023-03-06T02:29:59.258Z,99710.90
2023-03-06T02:30:23.109Z,99713.33
2023-03-06T02:30:47.260Z,99711.15
2023-03-06T02:31:19.068Z,99709.77
2023-03-06T02:31:42.463Z,99709.14
2023-03-06T02:32:05.687Z,99710.02
2023-03-06T02:32:29.045Z,99709.20
2023-03-06T02:32:55.157Z,99709.54
2023-03-06T02:33:19.719Z,99710.29
2023-03-06T02:33:42.836Z,99710.98
2023-03-06T02:34:15.165Z,99711.85
2023-03-06T02:34:38.885Z,99711.60
2023-03-06T02:35:04.146Z,99709.50
2023-03-06T02:35:28.317Z,99712.37
2023-03-06T02:35:58.808Z,99711.79
2023-03-06T02:36:22.080Z,99715.00
2023-03-06T02:36:49.280Z,99712.52
2023-03-06T02:37:12.392Z,99715.38
2023-03-06T02:37:35.812Z,99714.76
2023-03-06T02:38:00.155Z,99717.11
2023-03-06T02:38:34.009Z,99717.70
2023-03-06T02:38:58.151Z,99718.46
2023-03-06T02:39:25.150Z,99717.21
2023-03-06T02:39:50.203Z,99714.71
2023-03-06T02:40:13.434Z,99716.41
2023-03-06T02:40:36.966Z,99713.80
2023-03-06T02:41:00.061Z,99714.98
2023-03-06T02:41:25.729Z,99714.81
2023-03-06T02:41:49.250Z,99715.88
2023-03-06T02:42:25.576Z,99715.56
2023-03-06T02:42:50.823Z,99716.99
2023-03-06T02:43:14.752Z,99717.37
2023-03-06T02:43:40.947Z,99715.36
2023-03-06T02:44:06.406Z,99715.03
2023-03-06T02:44:29.718Z,99718.33
2023-03-06T02:44:52.936Z,99718.71
2023-03-06T02:45:17.684Z,99716.98
2023-03-06T02:45:45.443Z,99718.56
2023-03-06T02:46:08.563Z,99718.59
2023-03-06T02:46:32.435Z,99715.16
2023-03-06T02:46:56.600Z,99719.88
2023-03-06T02:47:21.130Z,99716.23
2023-03-06T02:47:45.990Z,99719.58
2023-03-06T02:48:10.014Z,99718.56
2023-03-06T02:48:34.058Z,99716.02
2023-03-06T02:48:57.064Z,99717.56
2023-03-06T02:49:20.489Z,99715.52
2023-03-06T02:49:45.136Z,99716.11
2023-03-06T02:50:08.960Z,99716.80
2023-03-06T02:50:32.996Z,99715.66
2023-03-06T02:50:57.352Z,99714.61
2023-03-06T02:51:20.755Z,99716.02
2023-03-06T02:51:43.770Z,99714.48
2023-03-06T02:52:08.824Z,99716.75
2023-03-06T02:52:31.818Z,99714.69
2023-03-06T02:52:54.850Z,99713.85
2023-03-06T02:53:18.380Z,99715.13
2023-03-06T02:53:41.417Z,99714.96
2023-03-06T02:54:11.149Z,99713.77
2023-03-06T02:54:35.387Z,99715.70
2023-03-06T02:54:58.708Z,99717.28
2023-03-06T02:55:22.021Z,99719.73
2023-03-06T02:55:45.050Z,99718.02
2023-03-06T02:56:08.777Z,99717.20
2023-03-06T02:56:31.872Z,99716.55
2023-03-06T02:56:55.305Z,99716.39
2023-03-06T02:57:18.582Z,99713.34
2023-03-06T02:57:41.751Z,99718.36
2023-03-06T02:58:05.049Z,99716.17
2023-03-06T02:58:28.366Z,99717.04
2023-03-06T02:58:52.295Z,99712.25
2023-03-06T02:59:16.439Z,99717.47
2023-03-06T02:59:41.392Z,99715.95
2023-03-06T03:00:05.123Z,99715.66
2023-03-06T03:00:28.639Z,99716.68
2023-03-06T03:00:52.180Z,99717.73
2023-03-06T03:01:15.716Z,99713.98
2023-03-06T03:01:39.842Z,99712.27
2023-03-06T03:02:03.142Z,99714.73
2023-03-06T03:02:26.936Z,99714.43
2023-03-06T03:02:49.992Z,99716.70
2023-03-06T03:03:13.098Z,99712.25
2023-03-06T03:03:36.314Z,99711.21
2023-03-06T03:04:01.169Z,99714.19
2023-03-06T03:04:25.185Z,99711.64
2023-03-06T03:04:50.294Z,99711.52
2023-03-06T03:05:19.816Z,99711.01
2023-03-06T03:05:46.104Z,99712.75
2023-03-06T03:06:16.477Z,99712.64
2023-03-06T03:06:39.805Z,99713.35
2023-03-06T03:07:03.217Z,99709.10
2023-03-06T03:07:26.838Z,99710.98
2023-03-06T03:07:50.462Z,99711.48
2023-03-06T03:08:13.685Z,99712.15
2023-03-06T03:08:45.074Z,99713.66
2023-03-06T03:09:11.887Z,99714.80
2023-03-06T03:09:39.136Z,99717.66
2023-03-06T03:10:04.550Z,99716.58
2023-03-06T03:10:29.192Z,99717.34
2023-03-06T03:10:52.718Z,99717.44
2023-03-06T03:11:16.958Z,99714.05
2023-03-06T03:11:42.727Z,99713.65
2023-03-06T03:12:06.989Z,99713.94
2023-03-06T03:12:30.287Z,99715.55
2023-03-06T03:12:53.410Z,99711.05
2023-03-06T03:13:16.688Z,99714.93
2023-03-06T03:13:40.158Z,99712.82
2023-03-06T03:14:04.889Z,99712.06
2023-03-06T03:14:29.040Z,99713.13
2023-03-06T03:14:52.482Z,99710.68
2023-03-06T03:15:15.778Z,99712.41
2023-03-06T03:15:39.313Z,99712.27
2023-03-06T03:16:03.226Z,99711.10
2023-03-06T03:16:28.994Z,99710.23
2023-03-06T03:16:57.018Z,99713.02
2023-03-06T03:17:22.076Z,99711.33
2023-03-06T03:17:44.979Z,99712.55
2023-03-06T03:18:10.456Z,99710.52
2023-03-06T03:18:35.717Z,99711.20
2023-03-06T03:18:58.826Z,99711.05
2023-03-06T03:19:22.250Z,99707.59
2023-03-06T03:19:45.496Z,99708.66
2023-03-06T03:20:10.614Z,99710.04
2023-03-06T03:20:34.046Z,99708.33
2023-03-06T03:20:57.568Z,99708.54
2023-03-06T03:21:20.889Z,99709.05
2023-03-06T03:21:44.205Z,99710.27
2023-03-06T03:22:07.255Z,99709.60
2023-03-06T03:22:30.312Z,99708.58
2023-03-06T03:22:53.982Z,99707.75
2023-03-06T03:23:17.072Z,99709.47
2023-03-06T03:23:40.394Z,99711.05
2023-03-06T03:24:03.708Z,99710.04
2023-03-06T03:24:27.264Z,99712.13
2023-03-06T03:24:51.429Z,99710.60
2023-03-06T03:25:14.811Z,99706.84
2023-03-06T03:25:38.619Z,99711.84
2023-03-06T03:26:08.589Z,99709.46
2023-03-06T03:26:31.804Z,99708.42
2023-03-06T03:27:02.184Z,99713.16
2023-03-06T03:27:25.341Z,99710.90
2023-03-06T03:27:48.509Z,99710.08
2023-03-06T03:28:11.522Z,99710.78
2023-03-06T03:28:35.658Z,99707.86
2023-03-06T03:29:00.135Z,99709.08
2023-03-06T03:29:23.628Z,99709.11
2023-03-06T03:29:47.060Z,99708.14
2023-03-06T03:30:10.978Z,99710.55
2023-03-06T03:30:35.130Z,99707.46
2023-03-06T03:31:02.280Z,99708.71
2023-03-06T03:31:26.538Z,99711.17
2023-03-06T03:31:50.389Z,99709.81
2023-03-06T03:32:13.754Z,99706.73
2023-03-06T03:32:37.981Z,99707.11
2023-03-06T03:33:01.880Z,99709.73
2023-03-06T03:33:29.494Z,99706.29
2023-03-06T03:33:52.881Z,99708.25
2023-03-06T03:34:16.597Z,99703.61
2023-03-06T03:34:40.269Z,99707.79
2023-03-06T03:35:04.333Z,99705.41
2023-03-06T03:35:28.228Z,99704.77
2023-03-06T03:35:58.919Z,99703.09
2023-03-06T03:36:22.161Z,99705.02
2023-03-06T03:36:45.859Z,99703.81
2023-03-06T03:37:09.083Z,99704.02
2023-03-06T03:37:34.860Z,99703.81
2023-03-06T03:37:57.990Z,99704.13
2023-03-06T03:38:21.800Z,99704.05
2023-03-06T03:38:45.627Z,99704.66
2023-03-06T03:39:09.455Z,99702.06
2023-03-06T03:39:32.684Z,99701.30
2023-03-06T03:39:56.603Z,99703.96
2023-03-06T03:40:19.821Z,99701.65
2023-03-06T03:40:45.594Z,99698.12
2023-03-06T03:41:08.708Z,99699.42
2023-03-06T03:41:33.476Z,99700.39
2023-03-06T03:41:57.902Z,99699.60
2023-03-06T03:42:21.220Z,99700.20
2023-03-06T03:42:44.137Z,99700.35
2023-03-06T03:43:07.857Z,99699.98
2023-03-06T03:43:31.994Z,99702.03
2023-03-06T03:43:55.415Z,99700.83
2023-03-06T03:44:19.654Z,99701.52
2023-03-06T03:44:43.293Z,99702.25
2023-03-06T03:45:07.834Z,99702.77
2023-03-06T03:45:33.601Z,99703.50
2023-03-06T03:45:57.212Z,99703.85
2023-03-06T03:46:21.815Z,99701.84
2023-03-06T03:46:45.858Z,99704.09
2023-03-06T03:47:12.807Z,99701.69
2023-03-06T03:47:36.630Z,99704.67
2023-03-06T03:47:59.954Z,99706.23
2023-03-06T03:48:23.069Z,99700.59
2023-03-06T03:48:46.292Z,99701.29
2023-03-06T03:49:09.661Z,99705.11
2023-03-06T03:49:33.195Z,99705.11
2023-03-06T03:50:01.046Z,99703.59
2023-03-06T03:50:26.230Z,99703.77
2023-03-06T03:50:50.154Z,99701.39
2023-03-06T03:51:16.850Z,99705.89
2023-03-06T03:51:44.449Z,99704.39
2023-03-06T03:52:07.687Z,99705.42
2023-03-06T03:52:31.522Z,99701.83
2023-03-06T03:52:54.827Z,99702.71
2023-03-06T03:53:18.129Z,99700.66
2023-03-06T03:53:41.564Z,99702.08
2023-03-06T03:54:06.963Z,99701.74
2023-03-06T03:54:34.027Z,99701.77
2023-03-06T03:54:57.027Z,99701.45
2023-03-06T03:55:20.661Z,99701.14
2023-03-06T03:55:46.221Z,99700.77
2023-03-06T03:56:09.538Z,99699.60
2023-03-06T03:56:40.901Z,99699.98
2023-03-06T03:57:09.068Z,99700.35
2023-03-06T03:57:34.841Z,99699.51
2023-03-06T03:57:58.265Z,99701.60
2023-03-06T03:58:21.584Z,99698.87
2023-03-06T03:58:45.101Z,99698.35
2023-03-06T03:59:08.635Z,99696.81
2023-03-06T03:59:37.056Z,99700.67
2023-03-06T04:00:07.989Z,99699.65
2023-03-06T04:00:38.317Z,99696.95
2023-03-06T04:01:06.238Z,99696.30
2023-03-06T04:01:30.477Z,99696.31
2023-03-06T04:01:56.175Z,99696.17
2023-03-06T04:02:22.051Z,99694.81
2023-03-06T04:02:52.095Z,99694.67
2023-03-06T04:03:32.181Z,99697.64
2023-03-06T04:03:55.302Z,99699.06
2023-03-06T04:04:18.614Z,99695.63
2023-03-06T04:04:41.763Z,99696.88
2023-03-06T04:05:05.719Z,99696.54
2023-03-06T04:05:28.886Z,99699.32
2023-03-06T04:05:58.171Z,99698.69
2023-03-06T04:06:24.724Z,99697.83
2023-03-06T04:06:48.965Z,99699.59
2023-03-06T04:07:12.908Z,99700.15
2023-03-06T04:07:37.234Z,99699.01
2023-03-06T04:08:03.342Z,99699.89
2023-03-06T04:08:27.025Z,99700.60
2023-03-06T04:08:51.089Z,99699.23
2023-03-06T04:09:14.409Z,99697.70
2023-03-06T04:09:38.632Z,99699.62
2023-03-06T04:10:01.861Z,99701.04
2023-03-06T04:10:25.280Z,99702.59
2023-03-06T04:10:48.387Z,99700.22
2023-03-06T04:11:11.702Z,99700.23
2023-03-06T04:11:34.820Z,99701.96
2023-03-06T04:11:57.932Z,99702.00
2023-03-06T04:12:23.607Z,99700.14
2023-03-06T04:12:51.418Z,99702.05
2023-03-06T04:13:21.113Z,99698.12
2023-03-06T04:13:44.295Z,99702.29
2023-03-06T04:14:09.890Z,99703.86
2023-03-06T04:14:35.639Z,99701.66
2023-03-06T04:14:59.274Z,99703.58
2023-03-06T04:15:22.387Z,99703.77
2023-03-06T04:15:46.108Z,99700.85
2023-03-06T04:16:11.398Z,99702.08
2023-03-06T04:16:35.729Z,99706.05
2023-03-06T04:16:58.820Z,99703.65
2023-03-06T04:17:21.834Z,99703.33
2023-03-06T04:17:44.845Z,99705.92
2023-03-06T04:18:10.721Z,99709.58
2023-03-06T04:18:37.973Z,99709.27
2023-03-06T04:19:06.359Z,99706.52
2023-03-06T04:19:29.884Z,99708.75
2023-03-06T04:19:53.412Z,99707.08
2023-03-06T04:20:16.441Z,99709.34
2023-03-06T04:20:40.146Z,99707.56
2023-03-06T04:21:04.081Z,99709.45
2023-03-06T04:21:28.113Z,99708.20
2023-03-06T04:21:51.227Z,99709.00
2023-03-06T04:22:14.747Z,99706.83
2023-03-06T04:22:38.991Z,99707.77
2023-03-06T04:23:02.309Z,99709.71
2023-03-06T04:23:26.423Z,99712.89
2023-03-06T04:23:49.860Z,99710.71
2023-03-06T04:24:13.082Z,99711.46
2023-03-06T04:24:36.245Z,99711.86
2023-03-06T04:25:03.705Z,99712.96
2023-03-06T04:25:27.852Z,99710.98
2023-03-06T04:25:51.096Z,99710.54
2023-03-06T04:26:22.149Z,99712.73
2023-03-06T04:26:45.371Z,99714.21
2023-03-06T04:27:09.194Z,99714.20
2023-03-06T04:27:32.205Z,99716.27
2023-03-06T04:27:56.966Z,99714.16
2023-03-06T04:28:22.325Z,99717.48
2023-03-06T04:28:46.974Z,99716.94
2023-03-06T04:29:12.952Z,99714.35
2023-03-06T04:29:39.977Z,99716.44
2023-03-06T04:30:03.435Z,99714.52
2023-03-06T04:30:27.616Z,99716.75
2023-03-06T04:30:51.642Z,99717.11
2023-03-06T04:31:16.545Z,99718.31
2023-03-06T04:31:39.980Z,99715.70
2023-03-06T04:32:03.394Z,99717.77
2023-03-06T04:32:27.359Z,99717.77
2023-03-06T04:32:50.801Z,99717.39
2023-03-06T04:33:13.981Z,99718.05
2023-03-06T04:33:37.756Z,99719.07
2023-03-06T04:34:01.057Z,99722.35
2023-03-06T04:34:24.481Z,99719.39
2023-03-06T04:34:51.786Z,99719.55
2023-03-06T04:35:15.614Z,99720.23
2023-03-06T04:35:46.267Z,99721.77
2023-03-06T04:36:33.966Z,99722.58
2023-03-06T04:37:06.210Z,99723.27
2023-03-06T04:37:29.903Z,99721.69
2023-03-06T04:37:57.311Z,99720.60
2023-03-06T04:38:21.043Z,99722.96
2023-03-06T04:38:49.592Z,99723.92
2023-03-06T04:39:15.351Z,99725.20
2023-03-06T04:39:38.562Z,99725.95
2023-03-06T04:40:04.952Z,99725.84
2023-03-06T04:40:32.163Z,99725.70
2023-03-06T04:40:57.117Z,99726.63
2023-03-06T04:41:20.843Z,99727.16
2023-03-06T04:41:44.222Z,99727.42
2023-03-06T04:42:07.753Z,99724.19
2023-03-06T04:42:32.035Z,99726.46
2023-03-06T04:42:55.638Z,99725.84
2023-03-06T04:43:18.902Z,99724.92
2023-03-06T04:43:42.202Z,99727.77
2023-03-06T04:44:05.502Z,99728.25
2023-03-06T04:44:28.718Z,99727.70
2023-03-06T04:44:52.175Z,99727.48
2023-03-06T04:45:15.458Z,99726.61
2023-03-06T04:45:38.953Z,99726.73
2023-03-06T04:46:02.169Z,99726.89
2023-03-06T04:46:26.436Z,99726.70
2023-03-06T04:46:50.062Z,99727.06
2023-03-06T04:47:13.383Z,99727.02
2023-03-06T04:47:36.495Z,99729.58
2023-03-06T04:47:59.696Z,99728.33
2023-03-06T04:48:22.745Z,99730.90
2023-03-06T04:48:45.940Z,99730.55
2023-03-06T04:49:09.126Z,99730.50
2023-03-06T04:49:32.282Z,99730.84
2023-03-06T04:49:55.385Z,99731.83
2023-03-06T04:50:18.803Z,99730.47
2023-03-06T04:50:43.872Z,99732.33